sensor_id;sensor_type;location;lat;lon;timestamp;pressure;altitude;pressure_sealevel;temperature;humidity
58757;BME280;44527;47.460;19.016;2024-02-26T00:02:41;99516.94;;;9.70;100.00
58757;BME280;44527;47.460;19.016;2024-02-26T00:05:44;99523.41;;;9.77;100.00
58757;BME280;44527;47.460;19.016;2024-02-26T00:08:47;99521.00;;;9.74;100.00
58757;BME280;44527;47.460;19.016;2024-02-26T00:11:50;99515.41;;;9.78;100.00
58757;BME280;44527;47.460;19.016;2024-02-26T00:14:54;99511.59;;;9.71;100.00
58757;BME280;44527;47.460;19.016;2024-02-26T00:17:57;99506.69;;;9.66;100.00
58757;BME280;44527;47.460;19.016;2024-02-26T00:20:59;99502.84;;;9.59;100.00
58757;BME280;44527;47.460;19.016;2024-02-26T00:24:03;99503.22;;;9.66;100.00
58757;BME280;44527;47.460;19.016;2024-02-26T00:27:06;99503.81;;;9.70;100.00
58757;BME280;44527;47.460;19.016;2024-02-26T00:30:09;99503.81;;;9.58;100.00
58757;BME280;44527;47.460;19.016;2024-02-26T00:33:14;99499.28;;;9.60;100.00
58757;BME280;44527;47.460;19.016;2024-02-26T00:36:17;99500.25;;;9.59;100.00
58757;BME280;44527;47.460;19.016;2024-02-26T00:39:21;99497.13;;;9.54;100.00
58757;BME280;44527;47.460;19.016;2024-02-26T00:42:24;99494.62;;;9.53;100.00
58757;BME280;44527;47.460;19.016;2024-02-26T00:45:27;99498.31;;;9.50;100.00
58757;BME280;44527;47.460;19.016;2024-02-26T00:48:30;99487.88;;;9.61;100.00
58757;BME280;44527;47.460;19.016;2024-02-26T00:51:33;99490.59;;;9.60;100.00
58757;BME280;44527;47.460;19.016;2024-02-26T00:54:36;99490.56;;;9.49;100.00
58757;BME280;44527;47.460;19.016;2024-02-26T00:57:38;99488.06;;;9.47;100.00
58757;BME280;44527;47.460;19.016;2024-02-26T01:00:43;99481.25;;;9.44;100.00
58757;BME280;44527;47.460;19.016;2024-02-26T01:03:46;99476.63;;;9.48;100.00
58757;BME280;44527;47.460;19.016;2024-02-26T01:06:49;99473.31;;;9.57;100.00
58757;BME280;44527;47.460;19.016;2024-02-26T01:09:51;99475.13;;;9.68;100.00
58757;BME280;44527;47.460;19.016;2024-02-26T01:12:54;99476.66;;;9.59;100.00
58757;BME280;44527;47.460;19.016;2024-02-26T01:15:56;99477.75;;;9.68;100.00
58757;BME280;44527;47.460;19.016;2024-02-26T01:18:59;99472.84;;;9.63;100.00
58757;BME280;44527;47.460;19.016;2024-02-26T01:22:02;99472.00;;;9.52;100.00
58757;BME280;44527;47.460;19.016;2024-02-26T01:25:05;99469.00;;;9.45;100.00
58757;BME280;44527;47.460;19.016;2024-02-26T01:28:07;99466.06;;;9.50;100.00
58757;BME280;44527;47.460;19.016;2024-02-26T01:31:10;99458.41;;;9.58;100.00
58757;BME280;44527;47.460;19.016;2024-02-26T01:34:12;99462.47;;;9.51;100.00
58757;BME280;44527;47.460;19.016;2024-02-26T01:37:16;99459.63;;;9.54;100.00
58757;BME280;44527;47.460;19.016;2024-02-26T01:40:19;99452.00;;;9.51;100.00
58757;BME280;44527;47.460;19.016;2024-02-26T01:43:22;99461.63;;;9.50;100.00
58757;BME280;44527;47.460;19.016;2024-02-26T01:46:25;99455.69;;;9.48;100.00
58757;BME280;44527;47.460;19.016;2024-02-26T01:49:29;99450.94;;;9.53;100.00
58757;BME280;44527;47.460;19.016;2024-02-26T01:52:32;99451.28;;;9.60;100.00
58757;BME280;44527;47.460;19.016;2024-02-26T01:55:35;99451.75;;;9.54;100.00
58757;BME280;44527;47.460;19.016;2024-02-26T01:58:42;99449.50;;;9.49;100.00
58757;BME280;44527;47.460;19.016;2024-02-26T02:01:48;99453.66;;;9.52;100.00
58757;BME280;44527;47.460;19.016;2024-02-26T02:04:54;99449.28;;;9.63;100.00
58757;BME280;44527;47.460;19.016;2024-02-26T02:07:57;99446.28;;;9.57;100.00
58757;BME280;44527;47.460;19.016;2024-02-26T02:11:00;99447.13;;;9.57;100.00
58757;BME280;44527;47.460;19.016;2024-02-26T02:14:02;99447.81;;;9.48;100.00
58757;BME280;44527;47.460;19.016;2024-02-26T02:17:05;99453.41;;;9.43;100.00
58757;BME280;44527;47.460;19.016;2024-02-26T02:20:17;99446.06;;;9.60;100.00
58757;BME280;44527;47.460;19.016;2024-02-26T02:23:22;99453.78;;;9.50;100.00
58757;BME280;44527;47.460;19.016;2024-02-26T02:26:25;99460.09;;;9.48;100.00
58757;BME280;44527;47.460;19.016;2024-02-26T02:29:28;99463.44;;;9.50;100.00
58757;BME280;44527;47.460;19.016;2024-02-26T02:32:30;99458.88;;;9.52;100.00
58757;BME280;44527;47.460;19.016;2024-02-26T02:35:33;99449.25;;;9.41;100.00
58757;BME280;44527;47.460;19.016;2024-02-26T02:38:48;99448.41;;;9.40;100.00
58757;BME280;44527;47.460;19.016;2024-02-26T02:41:52;99449.09;;;9.42;100.00
58757;BME280;44527;47.460;19.016;2024-02-26T02:44:55;99459.97;;;9.49;100.00
58757;BME280;44527;47.460;19.016;2024-02-26T02:47:57;99459.00;;;9.39;100.00
58757;BME280;44527;47.460;19.016;2024-02-26T02:51:00;99451.22;;;9.26;100.00
58757;BME280;44527;47.460;19.016;2024-02-26T02:54:03;99454.34;;;9.31;100.00
58757;BME280;44527;47.460;19.016;2024-02-26T02:57:05;99448.97;;;9.33;100.00
58757;BME280;44527;47.460;19.016;2024-02-26T03:00:09;99443.72;;;9.33;100.00
58757;BME280;44527;47.460;19.016;2024-02-26T03:03:11;99446.34;;;9.33;100.00
58757;BME280;44527;47.460;19.016;2024-02-26T03:06:14;99444.69;;;9.32;100.00
58757;BME280;44527;47.460;19.016;2024-02-26T03:09:16;99443.50;;;9.36;100.00
58757;BME280;44527;47.460;19.016;2024-02-26T03:12:19;99445.56;;;9.55;100.00
58757;BME280;44527;47.460;19.016;2024-02-26T03:15:22;99449.38;;;9.51;100.00
58757;BME280;44527;47.460;19.016;2024-02-26T03:18:25;99453.66;;;9.40;100.00
58757;BME280;44527;47.460;19.016;2024-02-26T03:21:27;99454.34;;;9.31;100.00
58757;BME280;44527;47.460;19.016;2024-02-26T03:24:30;99449.44;;;9.27;100.00
58757;BME280;44527;47.460;19.016;2024-02-26T03:27:32;99447.78;;;9.26;100.00
58757;BME280;44527;47.460;19.016;2024-02-26T03:30:35;99446.47;;;9.31;100.00
58757;BME280;44527;47.460;19.016;2024-02-26T03:33:38;99443.97;;;9.30;100.00
58757;BME280;44527;47.460;19.016;2024-02-26T03:36:41;99443.25;;;9.28;100.00
58757;BME280;44527;47.460;19.016;2024-02-26T03:39:44;99441.12;;;9.33;100.00
58757;BME280;44527;47.460;19.016;2024-02-26T03:42:47;99432.44;;;9.32;100.00
58757;BME280;44527;47.460;19.016;2024-02-26T03:45:49;99435.69;;;9.47;100.00
58757;BME280;44527;47.460;19.016;2024-02-26T03:48:52;99435.91;;;9.44;100.00
58757;BME280;44527;47.460;19.016;2024-02-26T03:51:55;99424.94;;;9.39;100.00
58757;BME280;44527;47.460;19.016;2024-02-26T03:54:58;99430.53;;;9.34;100.00
58757;BME280;44527;47.460;19.016;2024-02-26T03:58:01;99425.78;;;9.39;100.00
58757;BME280;44527;47.460;19.016;2024-02-26T04:01:03;99421.53;;;9.50;100.00
58757;BME280;44527;47.460;19.016;2024-02-26T04:04:06;99427.09;;;9.34;100.00
58757;BME280;44527;47.460;19.016;2024-02-26T04:07:08;99429.19;;;9.17;100.00
58757;BME280;44527;47.460;19.016;2024-02-26T04:10:12;99432.16;;;9.13;100.00
58757;BME280;44527;47.460;19.016;2024-02-26T04:13:14;99437.16;;;9.27;100.00
58757;BME280;44527;47.460;19.016;2024-02-26T04:16:17;99420.06;;;9.46;100.00
58757;BME280;44527;47.460;19.016;2024-02-26T04:19:20;99419.00;;;9.37;100.00
58757;BME280;44527;47.460;19.016;2024-02-26T04:22:23;99429.44;;;9.26;100.00
58757;BME280;44527;47.460;19.016;2024-02-26T04:25:26;99438.03;;;9.39;100.00
58757;BME280;44527;47.460;19.016;2024-02-26T04:28:29;99432.47;;;9.43;100.00
58757;BME280;44527;47.460;19.016;2024-02-26T04:31:31;99431.00;;;9.39;100.00
58757;BME280;44527;47.460;19.016;2024-02-26T04:34:35;99418.53;;;9.43;100.00
58757;BME280;44527;47.460;19.016;2024-02-26T04:37:37;99428.16;;;9.42;100.00
58757;BME280;44527;47.460;19.016;2024-02-26T04:40:41;99427.44;;;9.29;100.00
58757;BME280;44527;47.460;19.016;2024-02-26T04:43:43;99434.41;;;9.17;100.00
58757;BME280;44527;47.460;19.016;2024-02-26T04:46:46;99433.72;;;9.15;100.00
58757;BME280;44527;47.460;19.016;2024-02-26T04:49:50;99427.06;;;9.23;100.00
58757;BME280;44527;47.460;19.016;2024-02-26T04:52:53;99418.50;;;9.32;100.00
58757;BME280;44527;47.460;19.016;2024-02-26T04:55:55;99413.91;;;9.47;100.00
58757;BME280;44527;47.460;19.016;2024-02-26T04:58:57;99409.59;;;9.46;100.00
58757;BME280;44527;47.460;19.016;2024-02-26T05:02:00;99412.56;;;9.41;100.00
58757;BME280;44527;47.460;19.016;2024-02-26T05:05:04;99424.72;;;9.31;100.00
58757;BME280;44527;47.460;19.016;2024-02-26T05:08:06;99411.34;;;9.23;100.00
58757;BME280;44527;47.460;19.016;2024-02-26T05:11:09;99403.59;;;9.21;100.00
58757;BME280;44527;47.460;19.016;2024-02-26T05:14:12;99412.75;;;9.15;100.00
58757;BME280;44527;47.460;19.016;2024-02-26T05:17:15;99416.78;;;9.08;100.00
58757;BME280;44527;47.460;19.016;2024-02-26T05:20:17;99423.47;;;9.12;100.00
58757;BME280;44527;47.460;19.016;2024-02-26T05:23:19;99416.69;;;9.21;100.00
58757;BME280;44527;47.460;19.016;2024-02-26T05:26:24;99416.84;;;9.31;100.00
58757;BME280;44527;47.460;19.016;2024-02-26T05:29:27;99420.63;;;9.27;100.00
58757;BME280;44527;47.460;19.016;2024-02-26T05:32:29;99416.22;;;9.27;100.00
58757;BME280;44527;47.460;19.016;2024-02-26T05:35:32;99410.75;;;9.30;100.00
58757;BME280;44527;47.460;19.016;2024-02-26T05:38:34;99406.59;;;9.39;100.00
58757;BME280;44527;47.460;19.016;2024-02-26T05:41:37;99411.25;;;9.35;100.00
58757;BME280;44527;47.460;19.016;2024-02-26T05:44:40;99405.97;;;9.24;100.00
58757;BME280;44527;47.460;19.016;2024-02-26T05:47:43;99405.16;;;9.24;100.00
58757;BME280;44527;47.460;19.016;2024-02-26T05:50:46;99414.56;;;9.26;100.00
58757;BME280;44527;47.460;19.016;2024-02-26T05:53:49;99408.16;;;9.41;100.00
58757;BME280;44527;47.460;19.016;2024-02-26T05:56:57;99412.38;;;9.55;100.00
58757;BME280;44527;47.460;19.016;2024-02-26T06:00:00;99414.37;;;9.63;100.00
58757;BME280;44527;47.460;19.016;2024-02-26T06:03:12;99412.72;;;9.62;100.00
58757;BME280;44527;47.460;19.016;2024-02-26T06:06:14;99421.28;;;9.64;100.00
58757;BME280;44527;47.460;19.016;2024-02-26T06:09:18;99422.84;;;9.66;100.00
58757;BME280;44527;47.460;19.016;2024-02-26T06:12:21;99428.56;;;9.72;100.00
58757;BME280;44527;47.460;19.016;2024-02-26T06:15:23;99430.47;;;9.70;100.00
58757;BME280;44527;47.460;19.016;2024-02-26T06:18:26;99426.03;;;9.70;100.00
58757;BME280;44527;47.460;19.016;2024-02-26T06:21:29;99435.47;;;9.84;100.00
58757;BME280;44527;47.460;19.016;2024-02-26T06:24:31;99439.19;;;9.93;100.00
58757;BME280;44527;47.460;19.016;2024-02-26T06:27:40;99440.59;;;9.97;100.00
58757;BME280;44527;47.460;19.016;2024-02-26T06:30:43;99439.03;;;9.94;100.00
58757;BME280;44527;47.460;19.016;2024-02-26T06:33:46;99440.25;;;10.01;100.00
58757;BME280;44527;47.460;19.016;2024-02-26T06:36:49;99447.41;;;9.99;100.00
58757;BME280;44527;47.460;19.016;2024-02-26T06:39:51;99444.53;;;10.02;100.00
58757;BME280;44527;47.460;19.016;2024-02-26T06:42:54;99439.06;;;10.17;100.00
58757;BME280;44527;47.460;19.016;2024-02-26T06:45:57;99447.63;;;10.19;100.00
58757;BME280;44527;47.460;19.016;2024-02-26T06:48:59;99446.69;;;10.31;100.00
58757;BME280;44527;47.460;19.016;2024-02-26T06:52:03;99445.97;;;10.29;100.00
58757;BME280;44527;47.460;19.016;2024-02-26T06:55:05;99436.53;;;10.38;100.00
58757;BME280;44527;47.460;19.016;2024-02-26T06:58:10;99438.22;;;10.39;100.00
58757;BME280;44527;47.460;19.016;2024-02-26T07:01:13;99441.91;;;10.36;100.00
58757;BME280;44527;47.460;19.016;2024-02-26T07:04:15;99453.31;;;10.46;100.00
58757;BME280;44527;47.460;19.016;2024-02-26T07:07:18;99452.47;;;10.57;100.00
58757;BME280;44527;47.460;19.016;2024-02-26T07:10:21;99447.47;;;10.65;100.00
58757;BME280;44527;47.460;19.016;2024-02-26T07:13:24;99449.59;;;10.71;100.00
58757;BME280;44527;47.460;19.016;2024-02-26T07:16:26;99446.59;;;10.76;100.00
58757;BME280;44527;47.460;19.016;2024-02-26T07:19:29;99452.25;;;10.92;100.00
58757;BME280;44527;47.460;19.016;2024-02-26T07:22:32;99452.13;;;10.94;100.00
58757;BME280;44527;47.460;19.016;2024-02-26T07:25:34;99447.41;;;11.09;100.00
58757;BME280;44527;47.460;19.016;2024-02-26T07:28:37;99459.28;;;11.45;100.00
58757;BME280;44527;47.460;19.016;2024-02-26T07:31:39;99456.53;;;11.67;100.00
58757;BME280;44527;47.460;19.016;2024-02-26T07:34:42;99467.87;;;11.68;100.00
58757;BME280;44527;47.460;19.016;2024-02-26T07:37:50;99468.22;;;11.84;100.00
58757;BME280;44527;47.460;19.016;2024-02-26T07:40:52;99465.56;;;12.05;100.00
58757;BME280;44527;47.460;19.016;2024-02-26T07:44:04;99475.34;;;12.24;100.00
58757;BME280;44527;47.460;19.016;2024-02-26T07:47:07;99466.94;;;12.00;100.00
58757;BME280;44527;47.460;19.016;2024-02-26T07:50:09;99468.59;;;11.91;100.00
58757;BME280;44527;47.460;19.016;2024-02-26T07:53:15;99467.91;;;11.78;100.00
58757;BME280;44527;47.460;19.016;2024-02-26T07:56:18;99462.66;;;11.78;100.00
58757;BME280;44527;47.460;19.016;2024-02-26T07:59:20;99468.44;;;11.92;100.00
58757;BME280;44527;47.460;19.016;2024-02-26T08:02:22;99472.97;;;11.90;100.00
58757;BME280;44527;47.460;19.016;2024-02-26T08:05:25;99478.47;;;12.08;100.00
58757;BME280;44527;47.460;19.016;2024-02-26T08:08:28;99472.78;;;12.03;100.00
58757;BME280;44527;47.460;19.016;2024-02-26T08:11:31;99483.56;;;12.31;100.00
58757;BME280;44527;47.460;19.016;2024-02-26T08:14:33;99486.91;;;12.42;100.00
58757;BME280;44527;47.460;19.016;2024-02-26T08:17:36;99487.78;;;12.53;100.00
58757;BME280;44527;47.460;19.016;2024-02-26T08:20:39;99482.56;;;12.82;100.00
58757;BME280;44527;47.460;19.016;2024-02-26T08:23:43;99494.34;;;12.97;100.00
58757;BME280;44527;47.460;19.016;2024-02-26T08:26:45;99486.88;;;12.83;100.00
58757;BME280;44527;47.460;19.016;2024-02-26T08:29:48;99479.78;;;12.83;100.00
58757;BME280;44527;47.460;19.016;2024-02-26T08:32:58;99478.16;;;12.92;100.00
58757;BME280;44527;47.460;19.016;2024-02-26T08:36:06;99474.81;;;12.80;100.00
58757;BME280;44527;47.460;19.016;2024-02-26T08:39:08;99482.69;;;12.71;100.00
58757;BME280;44527;47.460;19.016;2024-02-26T08:42:11;99483.78;;;12.68;100.00
58757;BME280;44527;47.460;19.016;2024-02-26T08:45:13;99486.69;;;12.55;100.00
58757;BME280;44527;47.460;19.016;2024-02-26T08:48:16;99482.34;;;12.54;100.00
58757;BME280;44527;47.460;19.016;2024-02-26T08:51:18;99481.34;;;12.36;100.00
58757;BME280;44527;47.460;19.016;2024-02-26T08:54:21;99480.53;;;12.45;100.00
58757;BME280;44527;47.460;19.016;2024-02-26T08:57:24;99489.09;;;12.28;100.00
58757;BME280;44527;47.460;19.016;2024-02-26T09:00:32;99481.53;;;12.13;100.00
58757;BME280;44527;47.460;19.016;2024-02-26T09:03:35;99490.22;;;12.04;100.00
58757;BME280;44527;47.460;19.016;2024-02-26T09:06:39;99491.78;;;11.86;100.00
58757;BME280;44527;47.460;19.016;2024-02-26T09:09:42;99495.56;;;11.93;100.00
58757;BME280;44527;47.460;19.016;2024-02-26T09:12:45;99494.44;;;11.86;100.00
58757;BME280;44527;47.460;19.016;2024-02-26T09:15:47;99495.44;;;11.73;100.00
58757;BME280;44527;47.460;19.016;2024-02-26T09:18:51;99498.50;;;11.79;100.00
58757;BME280;44527;47.460;19.016;2024-02-26T09:21:53;99497.53;;;11.80;100.00
58757;BME280;44527;47.460;19.016;2024-02-26T09:24:59;99492.41;;;11.78;100.00
58757;BME280;44527;47.460;19.016;2024-02-26T09:28:02;99503.97;;;11.87;100.00
58757;BME280;44527;47.460;19.016;2024-02-26T09:31:04;99499.41;;;11.89;100.00
58757;BME280;44527;47.460;19.016;2024-02-26T09:34:08;99496.97;;;11.97;100.00
58757;BME280;44527;47.460;19.016;2024-02-26T09:37:11;99502.84;;;12.10;100.00
58757;BME280;44527;47.460;19.016;2024-02-26T09:40:22;99508.47;;;12.36;100.00
58757;BME280;44527;47.460;19.016;2024-02-26T09:43:27;99502.53;;;12.34;100.00
58757;BME280;44527;47.460;19.016;2024-02-26T09:46:36;99504.22;;;12.45;100.00
58757;BME280;44527;47.460;19.016;2024-02-26T09:49:39;99510.09;;;12.58;100.00
58757;BME280;44527;47.460;19.016;2024-02-26T09:52:42;99506.50;;;12.69;100.00
58757;BME280;44527;47.460;19.016;2024-02-26T09:55:44;99512.03;;;12.66;100.00
58757;BME280;44527;47.460;19.016;2024-02-26T09:58:47;99520.91;;;12.65;100.00
58757;BME280;44527;47.460;19.016;2024-02-26T10:01:55;99520.78;;;12.76;100.00
58757;BME280;44527;47.460;19.016;2024-02-26T10:05:02;99514.69;;;12.85;100.00
58757;BME280;44527;47.460;19.016;2024-02-26T10:08:09;99518.00;;;12.58;100.00
58757;BME280;44527;47.460;19.016;2024-02-26T10:11:13;99514.84;;;12.74;100.00
58757;BME280;44527;47.460;19.016;2024-02-26T10:14:17;99513.22;;;12.93;100.00
58757;BME280;44527;47.460;19.016;2024-02-26T10:17:20;99512.06;;;12.85;100.00
58757;BME280;44527;47.460;19.016;2024-02-26T10:20:23;99512.41;;;13.02;100.00
58757;BME280;44527;47.460;19.016;2024-02-26T10:23:26;99510.03;;;13.08;100.00
58757;BME280;44527;47.460;19.016;2024-02-26T10:26:29;99509.22;;;13.37;100.00
58757;BME280;44527;47.460;19.016;2024-02-26T10:29:31;99504.34;;;13.62;100.00
58757;BME280;44527;47.460;19.016;2024-02-26T10:32:35;99507.84;;;13.62;100.00
58757;BME280;44527;47.460;19.016;2024-02-26T10:35:37;99508.94;;;13.69;100.00
58757;BME280;44527;47.460;19.016;2024-02-26T10:38:42;99510.81;;;13.96;100.00
58757;BME280;44527;47.460;19.016;2024-02-26T10:41:45;99511.44;;;14.18;100.00
58757;BME280;44527;47.460;19.016;2024-02-26T10:44:48;99494.41;;;14.02;100.00
58757;BME280;44527;47.460;19.016;2024-02-26T10:47:51;99492.94;;;13.81;100.00
58757;BME280;44527;47.460;19.016;2024-02-26T10:50:53;99484.03;;;13.91;100.00
58757;BME280;44527;47.460;19.016;2024-02-26T10:53:59;99482.47;;;14.08;100.00
58757;BME280;44527;47.460;19.016;2024-02-26T10:57:12;99482.84;;;14.13;100.00
58757;BME280;44527;47.460;19.016;2024-02-26T11:00:16;99481.44;;;14.19;100.00
58757;BME280;44527;47.460;19.016;2024-02-26T11:03:19;99478.59;;;14.30;100.00
58757;BME280;44527;47.460;19.016;2024-02-26T11:06:23;99481.28;;;14.20;100.00
58757;BME280;44527;47.460;19.016;2024-02-26T11:09:26;99482.91;;;14.31;100.00
58757;BME280;44527;47.460;19.016;2024-02-26T11:12:31;99480.22;;;14.41;100.00
58757;BME280;44527;47.460;19.016;2024-02-26T11:15:34;99477.28;;;14.44;99.06
58757;BME280;44527;47.460;19.016;2024-02-26T11:18:39;99485.44;;;14.51;100.00
58757;BME280;44527;47.460;19.016;2024-02-26T11:21:43;99490.84;;;14.59;99.06
58757;BME280;44527;47.460;19.016;2024-02-26T11:24:46;99492.25;;;14.53;100.00
58757;BME280;44527;47.460;19.016;2024-02-26T11:27:52;99488.75;;;14.62;99.72
58757;BME280;44527;47.460;19.016;2024-02-26T11:30:57;99490.25;;;14.65;100.00
58757;BME280;44527;47.460;19.016;2024-02-26T11:34:01;99477.59;;;14.86;98.50
58757;BME280;44527;47.460;19.016;2024-02-26T11:37:12;99474.56;;;14.81;96.30
58757;BME280;44527;47.460;19.016;2024-02-26T11:40:15;99474.28;;;14.66;95.74
58757;BME280;44527;47.460;19.016;2024-02-26T11:43:22;99475.72;;;14.79;100.00
58757;BME280;44527;47.460;19.016;2024-02-26T11:46:32;99483.03;;;15.03;100.00
58757;BME280;44527;47.460;19.016;2024-02-26T11:49:36;99484.84;;;15.20;98.83
58757;BME280;44527;47.460;19.016;2024-02-26T11:56:25;99474.87;;;15.32;97.38
58757;BME280;44527;47.460;19.016;2024-02-26T11:59:38;99481.72;;;15.43;95.12
58757;BME280;44527;47.460;19.016;2024-02-26T12:02:45;99481.13;;;15.49;95.03
58757;BME280;44527;47.460;19.016;2024-02-26T12:05:51;99486.09;;;15.52;96.10
58757;BME280;44527;47.460;19.016;2024-02-26T12:08:54;99476.94;;;15.64;93.02
58757;BME280;44527;47.460;19.016;2024-02-26T12:11:57;99472.56;;;15.73;93.53
58757;BME280;44527;47.460;19.016;2024-02-26T12:15:01;99472.63;;;15.81;91.94
58757;BME280;44527;47.460;19.016;2024-02-26T12:18:06;99469.91;;;15.73;92.66
58757;BME280;44527;47.460;19.016;2024-02-26T12:21:10;99467.00;;;15.84;90.74
58757;BME280;44527;47.460;19.016;2024-02-26T12:24:15;99475.50;;;15.52;94.02
58757;BME280;44527;47.460;19.016;2024-02-26T12:27:20;99464.00;;;15.35;95.41
58757;BME280;44527;47.460;19.016;2024-02-26T12:30:26;99466.22;;;15.22;94.67
58757;BME280;44527;47.460;19.016;2024-02-26T12:33:35;99459.13;;;15.04;95.23
58757;BME280;44527;47.460;19.016;2024-02-26T12:36:38;99460.41;;;15.00;97.37
58757;BME280;44527;47.460;19.016;2024-02-26T12:39:42;99465.97;;;15.15;95.73
58757;BME280;44527;47.460;19.016;2024-02-26T12:42:45;99458.84;;;15.33;95.94
58757;BME280;44527;47.460;19.016;2024-02-26T12:45:48;99458.19;;;15.31;94.99
58757;BME280;44527;47.460;19.016;2024-02-26T12:48:51;99459.75;;;15.42;94.00
58757;BME280;44527;47.460;19.016;2024-02-26T12:51:53;99466.75;;;15.51;93.47
58757;BME280;44527;47.460;19.016;2024-02-26T12:54:58;99461.63;;;15.50;92.90
58757;BME280;44527;47.460;19.016;2024-02-26T12:58:00;99452.84;;;15.23;94.70
58757;BME280;44527;47.460;19.016;2024-02-26T13:01:03;99453.44;;;15.35;95.25
58757;BME280;44527;47.460;19.016;2024-02-26T13:04:06;99454.16;;;15.45;94.40
58757;BME280;44527;47.460;19.016;2024-02-26T13:07:12;99459.75;;;15.42;94.33
58757;BME280;44527;47.460;19.016;2024-02-26T13:10:15;99463.09;;;15.44;94.28
58757;BME280;44527;47.460;19.016;2024-02-26T13:13:23;99465.94;;;15.51;91.99
58757;BME280;44527;47.460;19.016;2024-02-26T13:16:26;99464.91;;;15.44;91.91
58757;BME280;44527;47.460;19.016;2024-02-26T13:19:28;99462.88;;;15.20;95.03
58757;BME280;44527;47.460;19.016;2024-02-26T13:22:31;99462.88;;;15.37;94.60
58757;BME280;44527;47.460;19.016;2024-02-26T13:25:36;99456.69;;;15.29;96.20
58757;BME280;44527;47.460;19.016;2024-02-26T13:28:44;99460.31;;;15.28;93.55
58757;BME280;44527;47.460;19.016;2024-02-26T13:31:47;99463.56;;;15.22;93.44
58757;BME280;44527;47.460;19.016;2024-02-26T13:34:49;99458.72;;;15.17;94.42
58757;BME280;44527;47.460;19.016;2024-02-26T13:37:52;99457.31;;;15.49;93.55
58757;BME280;44527;47.460;19.016;2024-02-26T13:40:55;99455.66;;;15.48;92.22
58757;BME280;44527;47.460;19.016;2024-02-26T13:43:57;99455.28;;;15.43;92.99
58757;BME280;44527;47.460;19.016;2024-02-26T13:46:59;99452.25;;;15.55;90.65
58757;BME280;44527;47.460;19.016;2024-02-26T13:50:02;99458.78;;;15.43;92.30
58757;BME280;44527;47.460;19.016;2024-02-26T13:53:05;99462.19;;;15.17;94.76
58757;BME280;44527;47.460;19.016;2024-02-26T13:56:07;99463.62;;;15.12;97.24
58757;BME280;44527;47.460;19.016;2024-02-26T13:59:11;99461.75;;;15.04;94.26
58757;BME280;44527;47.460;19.016;2024-02-26T14:02:14;99460.25;;;14.84;96.77
58757;BME280;44527;47.460;19.016;2024-02-26T14:05:16;99452.91;;;14.78;95.36
58757;BME280;44527;47.460;19.016;2024-02-26T14:08:19;99445.88;;;14.68;96.61
58757;BME280;44527;47.460;19.016;2024-02-26T14:11:21;99446.34;;;14.64;96.41
58757;BME280;44527;47.460;19.016;2024-02-26T14:14:24;99437.06;;;14.50;97.99
58757;BME280;44527;47.460;19.016;2024-02-26T14:17:27;99441.72;;;14.38;97.96
58757;BME280;44527;47.460;19.016;2024-02-26T14:20:30;99440.25;;;14.36;98.27
58757;BME280;44527;47.460;19.016;2024-02-26T14:23:32;99439.78;;;14.40;96.59
58757;BME280;44527;47.460;19.016;2024-02-26T14:26:35;99439.38;;;14.35;96.48
58757;BME280;44527;47.460;19.016;2024-02-26T14:29:37;99446.06;;;14.39;96.53
58757;BME280;44527;47.460;19.016;2024-02-26T14:32:42;99448.19;;;14.26;95.19
58757;BME280;44527;47.460;19.016;2024-02-26T14:35:45;99452.94;;;14.22;96.74
58757;BME280;44527;47.460;19.016;2024-02-26T14:38:48;99444.34;;;14.20;96.59
58757;BME280;44527;47.460;19.016;2024-02-26T14:41:50;99450.34;;;14.13;97.20
58757;BME280;44527;47.460;19.016;2024-02-26T14:44:56;99447.47;;;14.06;97.08
58757;BME280;44527;47.460;19.016;2024-02-26T14:47:59;99446.47;;;14.07;97.42
58757;BME280;44527;47.460;19.016;2024-02-26T14:51:01;99453.31;;;14.00;98.34
58757;BME280;44527;47.460;19.016;2024-02-26T14:54:04;99450.56;;;13.92;99.60
58757;BME280;44527;47.460;19.016;2024-02-26T14:57:06;99437.91;;;13.95;98.47
58757;BME280;44527;47.460;19.016;2024-02-26T15:00:10;99444.16;;;13.94;100.00
58757;BME280;44527;47.460;19.016;2024-02-26T15:03:12;99447.88;;;14.01;98.28
58757;BME280;44527;47.460;19.016;2024-02-26T15:06:15;99444.56;;;13.99;100.00
58757;BME280;44527;47.460;19.016;2024-02-26T15:09:18;99449.16;;;13.97;100.00
58757;BME280;44527;47.460;19.016;2024-02-26T15:12:20;99454.75;;;13.85;100.00
58757;BME280;44527;47.460;19.016;2024-02-26T15:15:33;99455.19;;;13.80;99.29
58757;BME280;44527;47.460;19.016;2024-02-26T15:18:37;99460.75;;;13.67;100.00
58757;BME280;44527;47.460;19.016;2024-02-26T15:21:43;99457.47;;;13.55;100.00
58757;BME280;44527;47.460;19.016;2024-02-26T15:24:46;99463.44;;;13.48;100.00
58757;BME280;44527;47.460;19.016;2024-02-26T15:27:49;99460.28;;;13.44;100.00
58757;BME280;44527;47.460;19.016;2024-02-26T15:30:51;99462.94;;;13.35;100.00
58757;BME280;44527;47.460;19.016;2024-02-26T15:33:53;99457.34;;;13.28;100.00
58757;BME280;44527;47.460;19.016;2024-02-26T15:36:56;99462.75;;;13.17;100.00
58757;BME280;44527;47.460;19.016;2024-02-26T15:39:58;99461.78;;;13.08;100.00
58757;BME280;44527;47.460;19.016;2024-02-26T15:43:01;99466.19;;;12.98;100.00
58757;BME280;44527;47.460;19.016;2024-02-26T15:46:03;99470.91;;;12.84;100.00
58757;BME280;44527;47.460;19.016;2024-02-26T15:49:06;99476.88;;;12.77;100.00
58757;BME280;44527;47.460;19.016;2024-02-26T15:52:08;99474.78;;;12.71;100.00
58757;BME280;44527;47.460;19.016;2024-02-26T15:55:11;99474.47;;;12.64;100.00
58757;BME280;44527;47.460;19.016;2024-02-26T15:58:18;99477.66;;;12.58;100.00